sensor_id;sensor_type;location;lat;lon;timestamp;P1;durP1;ratioP1;P2;durP2;ratioP2
45328;SDS011;31063;48.356;10.896;2022-12-07T00:02:04;12.70;;;9.83;;
45328;SDS011;31063;48.356;10.896;2022-12-07T00:04:30;14.03;;;10.40;;
45328;SDS011;31063;48.356;10.896;2022-12-07T00:06:55;16.90;;;10.27;;
45328;SDS011;31063;48.356;10.896;2022-12-07T00:09:21;14.03;;;9.90;;
45328;SDS011;31063;48.356;10.896;2022-12-07T00:11:50;15.07;;;10.63;;
45328;SDS011;31063;48.356;10.896;2022-12-07T00:14:16;14.43;;;11.07;;
45328;SDS011;31063;48.356;10.896;2022-12-07T00:16:43;15.85;;;11.02;;
45328;SDS011;31063;48.356;10.896;2022-12-07T00:19:10;16.02;;;10.60;;
45328;SDS011;31063;48.356;10.896;2022-12-07T00:21:37;15.52;;;10.13;;
45328;SDS011;31063;48.356;10.896;2022-12-07T00:24:03;15.68;;;10.27;;
45328;SDS011;31063;48.356;10.896;2022-12-07T00:26:31;14.93;;;10.90;;
45328;SDS011;31063;48.356;10.896;2022-12-07T00:28:58;15.73;;;10.98;;
45328;SDS011;31063;48.356;10.896;2022-12-07T00:31:27;14.82;;;10.48;;
45328;SDS011;31063;48.356;10.896;2022-12-07T00:33:54;13.75;;;9.88;;
45328;SDS011;31063;48.356;10.896;2022-12-07T00:36:21;15.57;;;11.07;;
45328;SDS011;31063;48.356;10.896;2022-12-07T00:38:48;15.25;;;10.65;;
45328;SDS011;31063;48.356;10.896;2022-12-07T00:41:15;14.65;;;9.95;;
45328;SDS011;31063;48.356;10.896;2022-12-07T00:43:43;15.40;;;10.00;;
45328;SDS011;31063;48.356;10.896;2022-12-07T00:46:10;12.95;;;10.10;;
45328;SDS011;31063;48.356;10.896;2022-12-07T00:48:36;15.30;;;10.20;;
45328;SDS011;31063;48.356;10.896;2022-12-07T00:51:02;15.63;;;10.73;;
45328;SDS011;31063;48.356;10.896;2022-12-07T00:53:28;14.77;;;10.65;;
45328;SDS011;31063;48.356;10.896;2022-12-07T00:55:55;14.18;;;10.38;;
45328;SDS011;31063;48.356;10.896;2022-12-07T00:58:21;14.20;;;9.90;;
45328;SDS011;31063;48.356;10.896;2022-12-07T01:00:47;14.63;;;10.25;;
45328;SDS011;31063;48.356;10.896;2022-12-07T01:03:14;15.50;;;10.80;;
45328;SDS011;31063;48.356;10.896;2022-12-07T01:05:40;14.93;;;10.68;;
45328;SDS011;31063;48.356;10.896;2022-12-07T01:08:17;13.93;;;10.32;;
45328;SDS011;31063;48.356;10.896;2022-12-07T01:10:42;17.17;;;11.60;;
45328;SDS011;31063;48.356;10.896;2022-12-07T01:13:08;13.17;;;10.30;;
45328;SDS011;31063;48.356;10.896;2022-12-07T01:15:34;17.40;;;10.97;;
45328;SDS011;31063;48.356;10.896;2022-12-07T01:17:59;13.33;;;10.47;;
45328;SDS011;31063;48.356;10.896;2022-12-07T01:20:25;14.77;;;10.90;;
45328;SDS011;31063;48.356;10.896;2022-12-07T01:22:50;19.93;;;10.50;;
45328;SDS011;31063;48.356;10.896;2022-12-07T01:25:16;13.63;;;10.30;;
45328;SDS011;31063;48.356;10.896;2022-12-07T01:27:41;18.00;;;10.57;;
45328;SDS011;31063;48.356;10.896;2022-12-07T01:30:07;13.47;;;10.43;;
45328;SDS011;31063;48.356;10.896;2022-12-07T01:32:35;14.68;;;11.35;;
45328;SDS011;31063;48.356;10.896;2022-12-07T01:35:00;17.33;;;11.60;;
45328;SDS011;31063;48.356;10.896;2022-12-07T01:37:26;14.33;;;10.80;;
45328;SDS011;31063;48.356;10.896;2022-12-07T01:39:52;12.83;;;9.67;;
45328;SDS011;31063;48.356;10.896;2022-12-07T01:42:18;14.97;;;10.80;;
45328;SDS011;31063;48.356;10.896;2022-12-07T01:47:41;15.82;;;11.35;;
45328;SDS011;31063;48.356;10.896;2022-12-07T01:50:08;16.88;;;10.95;;
45328;SDS011;31063;48.356;10.896;2022-12-07T01:52:34;14.50;;;10.05;;
45328;SDS011;31063;48.356;10.896;2022-12-07T01:55:12;14.55;;;11.07;;
45328;SDS011;31063;48.356;10.896;2022-12-07T01:57:41;13.32;;;10.23;;
45328;SDS011;31063;48.356;10.896;2022-12-07T02:00:13;14.98;;;10.93;;
45328;SDS011;31063;48.356;10.896;2022-12-07T02:02:44;15.32;;;10.93;;
45328;SDS011;31063;48.356;10.896;2022-12-07T02:05:32;14.98;;;11.18;;
45328;SDS011;31063;48.356;10.896;2022-12-07T02:08:00;17.80;;;11.95;;
45328;SDS011;31063;48.356;10.896;2022-12-07T02:10:27;14.65;;;11.15;;
45328;SDS011;31063;48.356;10.896;2022-12-07T02:13:03;15.85;;;11.35;;
45328;SDS011;31063;48.356;10.896;2022-12-07T02:21:04;14.60;;;10.77;;
45328;SDS011;31063;48.356;10.896;2022-12-07T02:31:39;14.75;;;11.02;;
45328;SDS011;31063;48.356;10.896;2022-12-07T02:34:24;16.40;;;11.52;;
45328;SDS011;31063;48.356;10.896;2022-12-07T02:36:52;16.40;;;11.63;;
45328;SDS011;31063;48.356;10.896;2022-12-07T02:40:05;16.42;;;11.63;;
45328;SDS011;31063;48.356;10.896;2022-12-07T02:42:23;14.80;;;10.73;;
45328;SDS011;31063;48.356;10.896;2022-12-07T02:44:53;16.60;;;11.60;;
45328;SDS011;31063;48.356;10.896;2022-12-07T02:47:19;15.00;;;10.73;;
45328;SDS011;31063;48.356;10.896;2022-12-07T02:49:48;14.65;;;10.90;;
45328;SDS011;31063;48.356;10.896;2022-12-07T02:52:15;14.38;;;11.20;;
45328;SDS011;31063;48.356;10.896;2022-12-07T02:54:40;14.97;;;11.50;;
45328;SDS011;31063;48.356;10.896;2022-12-07T03:08:02;14.07;;;10.63;;
45328;SDS011;31063;48.356;10.896;2022-12-07T03:16:00;16.27;;;11.65;;
45328;SDS011;31063;48.356;10.896;2022-12-07T03:18:33;14.20;;;10.88;;
45328;SDS011;31063;48.356;10.896;2022-12-07T03:21:04;15.90;;;10.95;;
45328;SDS011;31063;48.356;10.896;2022-12-07T03:23:35;16.45;;;11.55;;
45328;SDS011;31063;48.356;10.896;2022-12-07T03:26:02;16.10;;;10.60;;
45328;SDS011;31063;48.356;10.896;2022-12-07T03:28:34;16.90;;;11.40;;
45328;SDS011;31063;48.356;10.896;2022-12-07T03:31:13;14.40;;;11.38;;
45328;SDS011;31063;48.356;10.896;2022-12-07T03:36:35;14.30;;;11.13;;
45328;SDS011;31063;48.356;10.896;2022-12-07T03:41:41;13.93;;;10.88;;
45328;SDS011;31063;48.356;10.896;2022-12-07T03:44:07;17.15;;;11.98;;
45328;SDS011;31063;48.356;10.896;2022-12-07T03:46:56;17.50;;;11.43;;
45328;SDS011;31063;48.356;10.896;2022-12-07T03:55:00;18.58;;;13.45;;
45328;SDS011;31063;48.356;10.896;2022-12-07T03:57:36;15.65;;;12.02;;
45328;SDS011;31063;48.356;10.896;2022-12-07T04:00:04;17.40;;;12.55;;
45328;SDS011;31063;48.356;10.896;2022-12-07T04:02:31;16.80;;;11.90;;
45328;SDS011;31063;48.356;10.896;2022-12-07T04:04:58;15.90;;;11.50;;
45328;SDS011;31063;48.356;10.896;2022-12-07T04:07:23;16.48;;;12.43;;
45328;SDS011;31063;48.356;10.896;2022-12-07T04:09:50;17.48;;;12.75;;
45328;SDS011;31063;48.356;10.896;2022-12-07T04:12:15;16.23;;;12.50;;
45328;SDS011;31063;48.356;10.896;2022-12-07T04:14:41;17.43;;;12.83;;
45328;SDS011;31063;48.356;10.896;2022-12-07T04:17:08;16.97;;;12.43;;
45328;SDS011;31063;48.356;10.896;2022-12-07T04:19:34;16.58;;;12.20;;
45328;SDS011;31063;48.356;10.896;2022-12-07T04:22:00;15.85;;;11.77;;
45328;SDS011;31063;48.356;10.896;2022-12-07T04:24:26;17.13;;;12.18;;
45328;SDS011;31063;48.356;10.896;2022-12-07T04:26:53;18.58;;;12.30;;
45328;SDS011;31063;48.356;10.896;2022-12-07T04:29:19;17.35;;;12.57;;
45328;SDS011;31063;48.356;10.896;2022-12-07T04:31:44;16.50;;;12.00;;
45328;SDS011;31063;48.356;10.896;2022-12-07T04:34:10;19.87;;;13.47;;
45328;SDS011;31063;48.356;10.896;2022-12-07T04:36:37;17.88;;;12.85;;
45328;SDS011;31063;48.356;10.896;2022-12-07T04:39:04;18.45;;;12.95;;
45328;SDS011;31063;48.356;10.896;2022-12-07T04:41:31;17.73;;;13.07;;
45328;SDS011;31063;48.356;10.896;2022-12-07T04:43:57;16.93;;;13.33;;
45328;SDS011;31063;48.356;10.896;2022-12-07T04:46:29;17.33;;;13.05;;
45328;SDS011;31063;48.356;10.896;2022-12-07T04:48:56;18.20;;;13.13;;
45328;SDS011;31063;48.356;10.896;2022-12-07T04:51:23;18.60;;;13.70;;
45328;SDS011;31063;48.356;10.896;2022-12-07T04:53:53;19.85;;;13.70;;
45328;SDS011;31063;48.356;10.896;2022-12-07T04:58:45;19.73;;;13.38;;
45328;SDS011;31063;48.356;10.896;2022-12-07T05:01:12;19.35;;;13.57;;
45328;SDS011;31063;48.356;10.896;2022-12-07T05:03:41;18.10;;;13.75;;
45328;SDS011;31063;48.356;10.896;2022-12-07T05:06:07;20.77;;;14.70;;
45328;SDS011;31063;48.356;10.896;2022-12-07T05:08:34;19.08;;;13.77;;
45328;SDS011;31063;48.356;10.896;2022-12-07T05:11:00;20.67;;;14.88;;
45328;SDS011;31063;48.356;10.896;2022-12-07T05:13:27;18.88;;;14.57;;
45328;SDS011;31063;48.356;10.896;2022-12-07T05:15:52;19.87;;;14.43;;
45328;SDS011;31063;48.356;10.896;2022-12-07T05:18:18;20.63;;;15.03;;
45328;SDS011;31063;48.356;10.896;2022-12-07T05:20:43;20.83;;;15.10;;
45328;SDS011;31063;48.356;10.896;2022-12-07T05:23:09;21.90;;;14.80;;
45328;SDS011;31063;48.356;10.896;2022-12-07T05:25:35;20.50;;;15.68;;
45328;SDS011;31063;48.356;10.896;2022-12-07T05:28:01;22.63;;;15.60;;
45328;SDS011;31063;48.356;10.896;2022-12-07T05:30:28;20.88;;;15.73;;
45328;SDS011;31063;48.356;10.896;2022-12-07T05:32:54;22.75;;;14.98;;
45328;SDS011;31063;48.356;10.896;2022-12-07T05:35:20;20.33;;;14.82;;
45328;SDS011;31063;48.356;10.896;2022-12-07T05:37:46;21.88;;;15.65;;
45328;SDS011;31063;48.356;10.896;2022-12-07T05:40:12;21.33;;;15.67;;
45328;SDS011;31063;48.356;10.896;2022-12-07T05:42:39;23.65;;;15.90;;
45328;SDS011;31063;48.356;10.896;2022-12-07T05:45:05;21.75;;;15.77;;
45328;SDS011;31063;48.356;10.896;2022-12-07T05:47:31;21.90;;;16.20;;
45328;SDS011;31063;48.356;10.896;2022-12-07T05:49:57;19.43;;;14.43;;
45328;SDS011;31063;48.356;10.896;2022-12-07T05:52:22;24.57;;;15.90;;
45328;SDS011;31063;48.356;10.896;2022-12-07T05:54:48;19.85;;;15.43;;
45328;SDS011;31063;48.356;10.896;2022-12-07T05:57:14;22.60;;;16.33;;
45328;SDS011;31063;48.356;10.896;2022-12-07T05:59:39;21.07;;;14.57;;
45328;SDS011;31063;48.356;10.896;2022-12-07T06:02:06;23.93;;;15.57;;
45328;SDS011;31063;48.356;10.896;2022-12-07T06:04:38;20.52;;;15.40;;
45328;SDS011;31063;48.356;10.896;2022-12-07T06:07:06;21.10;;;15.00;;
45328;SDS011;31063;48.356;10.896;2022-12-07T06:09:32;21.35;;;14.52;;
45328;SDS011;31063;48.356;10.896;2022-12-07T06:11:58;22.30;;;15.98;;
45328;SDS011;31063;48.356;10.896;2022-12-07T06:14:43;20.80;;;15.35;;
45328;SDS011;31063;48.356;10.896;2022-12-07T06:17:09;21.60;;;15.75;;
45328;SDS011;31063;48.356;10.896;2022-12-07T06:19:35;24.15;;;15.85;;
45328;SDS011;31063;48.356;10.896;2022-12-07T06:22:01;23.17;;;16.25;;
45328;SDS011;31063;48.356;10.896;2022-12-07T06:24:27;22.80;;;16.98;;
45328;SDS011;31063;48.356;10.896;2022-12-07T06:26:53;22.90;;;16.67;;
45328;SDS011;31063;48.356;10.896;2022-12-07T06:29:19;24.65;;;16.25;;
45328;SDS011;31063;48.356;10.896;2022-12-07T06:31:44;23.77;;;15.97;;
45328;SDS011;31063;48.356;10.896;2022-12-07T06:34:12;24.15;;;16.30;;
45328;SDS011;31063;48.356;10.896;2022-12-07T06:36:39;24.95;;;17.45;;
45328;SDS011;31063;48.356;10.896;2022-12-07T06:39:05;28.65;;;18.60;;
45328;SDS011;31063;48.356;10.896;2022-12-07T06:41:32;27.40;;;17.08;;
45328;SDS011;31063;48.356;10.896;2022-12-07T06:43:58;25.23;;;17.80;;
45328;SDS011;31063;48.356;10.896;2022-12-07T06:46:24;26.53;;;16.97;;
45328;SDS011;31063;48.356;10.896;2022-12-07T06:48:49;25.40;;;17.13;;
45328;SDS011;31063;48.356;10.896;2022-12-07T06:51:15;27.92;;;18.17;;
45328;SDS011;31063;48.356;10.896;2022-12-07T06:53:41;29.92;;;17.13;;
45328;SDS011;31063;48.356;10.896;2022-12-07T06:56:07;28.77;;;18.20;;
45328;SDS011;31063;48.356;10.896;2022-12-07T06:58:32;28.40;;;19.03;;
45328;SDS011;31063;48.356;10.896;2022-12-07T07:00:58;26.93;;;17.23;;
45328;SDS011;31063;48.356;10.896;2022-12-07T07:03:24;27.20;;;17.70;;
45328;SDS011;31063;48.356;10.896;2022-12-07T07:05:49;27.63;;;19.00;;
45328;SDS011;31063;48.356;10.896;2022-12-07T07:08:15;31.30;;;18.63;;
45328;SDS011;31063;48.356;10.896;2022-12-07T07:10:41;27.70;;;19.10;;
45328;SDS011;31063;48.356;10.896;2022-12-07T07:13:07;26.63;;;18.10;;
45328;SDS011;31063;48.356;10.896;2022-12-07T07:15:33;27.27;;;17.77;;
45328;SDS011;31063;48.356;10.896;2022-12-07T07:17:59;32.65;;;19.75;;
45328;SDS011;31063;48.356;10.896;2022-12-07T07:20:25;26.88;;;18.63;;
45328;SDS011;31063;48.356;10.896;2022-12-07T07:22:53;31.75;;;19.83;;
45328;SDS011;31063;48.356;10.896;2022-12-07T07:25:19;26.70;;;18.60;;
45328;SDS011;31063;48.356;10.896;2022-12-07T07:27:45;28.27;;;19.07;;
45328;SDS011;31063;48.356;10.896;2022-12-07T07:30:10;26.30;;;17.53;;
45328;SDS011;31063;48.356;10.896;2022-12-07T07:32:36;30.27;;;19.08;;
45328;SDS011;31063;48.356;10.896;2022-12-07T07:35:02;26.93;;;18.53;;
45328;SDS011;31063;48.356;10.896;2022-12-07T07:37:28;31.70;;;19.40;;
45328;SDS011;31063;48.356;10.896;2022-12-07T07:39:54;28.27;;;19.27;;
45328;SDS011;31063;48.356;10.896;2022-12-07T07:42:19;30.33;;;18.90;;
45328;SDS011;31063;48.356;10.896;2022-12-07T07:44:45;29.50;;;18.93;;
45328;SDS011;31063;48.356;10.896;2022-12-07T07:47:10;32.10;;;20.10;;
45328;SDS011;31063;48.356;10.896;2022-12-07T07:49:36;27.25;;;18.83;;
45328;SDS011;31063;48.356;10.896;2022-12-07T07:52:02;27.87;;;19.80;;
45328;SDS011;31063;48.356;10.896;2022-12-07T07:54:28;29.08;;;18.25;;
45328;SDS011;31063;48.356;10.896;2022-12-07T07:56:54;29.57;;;19.93;;
45328;SDS011;31063;48.356;10.896;2022-12-07T07:59:19;28.60;;;19.37;;
45328;SDS011;31063;48.356;10.896;2022-12-07T08:01:45;31.10;;;20.23;;
45328;SDS011;31063;48.356;10.896;2022-12-07T08:04:10;29.70;;;19.47;;
45328;SDS011;31063;48.356;10.896;2022-12-07T08:06:36;29.90;;;18.75;;
45328;SDS011;31063;48.356;10.896;2022-12-07T08:09:02;31.67;;;19.07;;
45328;SDS011;31063;48.356;10.896;2022-12-07T08:11:30;30.02;;;18.55;;
45328;SDS011;31063;48.356;10.896;2022-12-07T08:13:55;32.43;;;20.67;;
45328;SDS011;31063;48.356;10.896;2022-12-07T08:16:21;27.60;;;18.17;;
45328;SDS011;31063;48.356;10.896;2022-12-07T08:18:46;30.07;;;19.83;;
45328;SDS011;31063;48.356;10.896;2022-12-07T08:21:13;30.77;;;20.33;;
45328;SDS011;31063;48.356;10.896;2022-12-07T08:23:40;27.42;;;17.88;;
45328;SDS011;31063;48.356;10.896;2022-12-07T08:26:10;29.63;;;19.53;;
45328;SDS011;31063;48.356;10.896;2022-12-07T08:28:38;31.48;;;21.00;;
45328;SDS011;31063;48.356;10.896;2022-12-07T08:31:06;30.48;;;18.48;;
45328;SDS011;31063;48.356;10.896;2022-12-07T08:33:33;29.60;;;18.33;;
45328;SDS011;31063;48.356;10.896;2022-12-07T08:36:00;29.35;;;19.50;;
45328;SDS011;31063;48.356;10.896;2022-12-07T08:38:28;27.33;;;19.17;;
45328;SDS011;31063;48.356;10.896;2022-12-07T08:40:54;31.67;;;18.43;;
45328;SDS011;31063;48.356;10.896;2022-12-07T08:43:23;28.05;;;18.88;;
45328;SDS011;31063;48.356;10.896;2022-12-07T08:48:39;28.13;;;19.38;;
45328;SDS011;31063;48.356;10.896;2022-12-07T08:51:09;24.80;;;16.70;;
45328;SDS011;31063;48.356;10.896;2022-12-07T08:53:35;27.98;;;18.38;;
45328;SDS011;31063;48.356;10.896;2022-12-07T08:56:03;26.05;;;17.85;;
45328;SDS011;31063;48.356;10.896;2022-12-07T08:58:30;27.63;;;17.88;;
45328;SDS011;31063;48.356;10.896;2022-12-07T09:00:56;27.63;;;18.98;;
45328;SDS011;31063;48.356;10.896;2022-12-07T09:03:22;26.70;;;18.10;;
45328;SDS011;31063;48.356;10.896;2022-12-07T09:05:47;24.93;;;16.33;;
45328;SDS011;31063;48.356;10.896;2022-12-07T09:08:13;24.43;;;16.47;;
45328;SDS011;31063;48.356;10.896;2022-12-07T09:10:39;23.95;;;16.70;;
45328;SDS011;31063;48.356;10.896;2022-12-07T09:13:05;20.20;;;14.37;;
45328;SDS011;31063;48.356;10.896;2022-12-07T09:15:30;21.43;;;15.03;;
45328;SDS011;31063;48.356;10.896;2022-12-07T09:17:56;19.88;;;14.13;;
45328;SDS011;31063;48.356;10.896;2022-12-07T09:20:22;19.77;;;14.10;;
45328;SDS011;31063;48.356;10.896;2022-12-07T09:22:48;19.35;;;13.40;;
45328;SDS011;31063;48.356;10.896;2022-12-07T09:25:13;20.70;;;14.07;;
45328;SDS011;31063;48.356;10.896;2022-12-07T09:27:39;21.42;;;14.73;;
45328;SDS011;31063;48.356;10.896;2022-12-07T09:30:05;21.77;;;14.63;;
45328;SDS011;31063;48.356;10.896;2022-12-07T09:34:57;20.15;;;12.30;;
45328;SDS011;31063;48.356;10.896;2022-12-07T09:37:22;17.67;;;12.27;;
45328;SDS011;31063;48.356;10.896;2022-12-07T09:39:48;17.57;;;11.83;;
45328;SDS011;31063;48.356;10.896;2022-12-07T09:42:30;15.70;;;11.57;;
45328;SDS011;31063;48.356;10.896;2022-12-07T09:44:57;19.23;;;13.63;;
45328;SDS011;31063;48.356;10.896;2022-12-07T09:47:24;18.45;;;12.98;;
45328;SDS011;31063;48.356;10.896;2022-12-07T09:49:51;18.45;;;13.48;;
45328;SDS011;31063;48.356;10.896;2022-12-07T09:54:49;20.63;;;13.70;;
45328;SDS011;31063;48.356;10.896;2022-12-07T09:57:16;18.92;;;13.30;;
45328;SDS011;31063;48.356;10.896;2022-12-07T09:59:42;19.60;;;13.35;;
45328;SDS011;31063;48.356;10.896;2022-12-07T10:05:16;17.73;;;13.75;;
45328;SDS011;31063;48.356;10.896;2022-12-07T10:07:45;17.30;;;12.77;;
45328;SDS011;31063;48.356;10.896;2022-12-07T10:10:54;18.57;;;13.20;;
45328;SDS011;31063;48.356;10.896;2022-12-07T10:13:12;16.60;;;12.18;;
45328;SDS011;31063;48.356;10.896;2022-12-07T10:15:51;20.13;;;12.82;;
45328;SDS011;31063;48.356;10.896;2022-12-07T10:23:37;19.13;;;12.82;;
45328;SDS011;31063;48.356;10.896;2022-12-07T10:28:52;13.73;;;11.20;;
45328;SDS011;31063;48.356;10.896;2022-12-07T10:31:19;15.30;;;11.93;;
45328;SDS011;31063;48.356;10.896;2022-12-07T10:33:51;15.00;;;11.18;;
45328;SDS011;31063;48.356;10.896;2022-12-07T10:36:20;16.27;;;11.77;;
45328;SDS011;31063;48.356;10.896;2022-12-07T10:38:49;15.27;;;11.25;;
45328;SDS011;31063;48.356;10.896;2022-12-07T10:41:23;14.63;;;11.32;;
45328;SDS011;31063;48.356;10.896;2022-12-07T10:43:50;13.87;;;10.27;;
45328;SDS011;31063;48.356;10.896;2022-12-07T10:46:26;12.23;;;9.07;;
45328;SDS011;31063;48.356;10.896;2022-12-07T10:49:28;10.15;;;8.23;;
45328;SDS011;31063;48.356;10.896;2022-12-07T10:56:14;10.65;;;8.20;;
45328;SDS011;31063;48.356;10.896;2022-12-07T11:07:07;12.23;;;8.90;;
45328;SDS011;31063;48.356;10.896;2022-12-07T11:17:56;13.33;;;10.00;;
45328;SDS011;31063;48.356;10.896;2022-12-07T11:20:41;14.20;;;9.32;;
45328;SDS011;31063;48.356;10.896;2022-12-07T11:26:18;15.48;;;9.50;;
45328;SDS011;31063;48.356;10.896;2022-12-07T11:34:22;12.77;;;9.57;;
45328;SDS011;31063;48.356;10.896;2022-12-07T11:37:02;13.05;;;9.02;;
45328;SDS011;31063;48.356;10.896;2022-12-07T11:39:39;13.60;;;9.43;;
45328;SDS011;31063;48.356;10.896;2022-12-07T11:42:15;11.80;;;8.98;;
45328;SDS011;31063;48.356;10.896;2022-12-07T11:55:46;15.83;;;9.30;;
45328;SDS011;31063;48.356;10.896;2022-12-07T12:03:52;13.40;;;8.63;;
45328;SDS011;31063;48.356;10.896;2022-12-07T12:06:21;15.25;;;8.75;;
45328;SDS011;31063;48.356;10.896;2022-12-07T12:08:55;11.98;;;8.68;;
45328;SDS011;31063;48.356;10.896;2022-12-07T12:14:21;13.80;;;8.45;;
45328;SDS011;31063;48.356;10.896;2022-12-07T12:24:42;14.57;;;8.68;;
45328;SDS011;31063;48.356;10.896;2022-12-07T12:27:23;11.93;;;8.35;;
45328;SDS011;31063;48.356;10.896;2022-12-07T12:30:00;11.85;;;7.70;;
45328;SDS011;31063;48.356;10.896;2022-12-07T12:37:49;20.23;;;8.50;;
45328;SDS011;31063;48.356;10.896;2022-12-07T12:45:20;12.93;;;7.93;;
45328;SDS011;31063;48.356;10.896;2022-12-07T12:50:32;12.73;;;8.02;;
45328;SDS011;31063;48.356;10.896;2022-12-07T13:00:49;12.23;;;8.60;;
45328;SDS011;31063;48.356;10.896;2022-12-07T13:03:53;11.93;;;8.15;;
45328;SDS011;31063;48.356;10.896;2022-12-07T13:06:41;15.10;;;8.63;;
45328;SDS011;31063;48.356;10.896;2022-12-07T13:09:15;11.90;;;8.13;;
45328;SDS011;31063;48.356;10.896;2022-12-07T13:11:48;11.00;;;7.45;;
45328;SDS011;31063;48.356;10.896;2022-12-07T13:27:59;14.13;;;7.63;;
45328;SDS011;31063;48.356;10.896;2022-12-07T13:30:32;12.88;;;6.95;;
45328;SDS011;31063;48.356;10.896;2022-12-07T13:33:10;11.40;;;7.00;;
45328;SDS011;31063;48.356;10.896;2022-12-07T13:35:36;11.50;;;6.53;;
45328;SDS011;31063;48.356;10.896;2022-12-07T13:38:05;9.95;;;7.03;;
45328;SDS011;31063;48.356;10.896;2022-12-07T13:41:05;9.25;;;6.43;;
45328;SDS011;31063;48.356;10.896;2022-12-07T13:43:45;11.77;;;6.95;;
45328;SDS011;31063;48.356;10.896;2022-12-07T13:46:13;16.17;;;6.57;;
45328;SDS011;31063;48.356;10.896;2022-12-07T13:48:46;14.05;;;6.22;;
45328;SDS011;31063;48.356;10.896;2022-12-07T13:51:26;11.13;;;6.80;;
45328;SDS011;31063;48.356;10.896;2022-12-07T13:53:59;9.38;;;5.82;;
45328;SDS011;31063;48.356;10.896;2022-12-07T13:56:32;10.00;;;6.20;;
45328;SDS011;31063;48.356;10.896;2022-12-07T13:58:59;13.70;;;6.13;;
45328;SDS011;31063;48.356;10.896;2022-12-07T14:01:25;8.50;;;6.43;;
45328;SDS011;31063;48.356;10.896;2022-12-07T14:03:51;9.45;;;6.35;;
45328;SDS011;31063;48.356;10.896;2022-12-07T14:08:50;9.23;;;6.00;;
45328;SDS011;31063;48.356;10.896;2022-12-07T14:11:31;8.10;;;5.57;;
45328;SDS011;31063;48.356;10.896;2022-12-07T14:13:58;6.80;;;5.40;;
45328;SDS011;31063;48.356;10.896;2022-12-07T14:16:33;9.00;;;6.20;;
45328;SDS011;31063;48.356;10.896;2022-12-07T14:19:02;10.90;;;6.35;;
45328;SDS011;31063;48.356;10.896;2022-12-07T14:21:32;8.57;;;5.93;;
45328;SDS011;31063;48.356;10.896;2022-12-07T14:24:04;10.13;;;6.05;;
45328;SDS011;31063;48.356;10.896;2022-12-07T14:26:32;9.35;;;6.47;;
45328;SDS011;31063;48.356;10.896;2022-12-07T14:31:55;11.52;;;7.53;;
45328;SDS011;31063;48.356;10.896;2022-12-07T14:34:23;9.40;;;6.35;;
45328;SDS011;31063;48.356;10.896;2022-12-07T14:36:49;8.65;;;6.22;;
45328;SDS011;31063;48.356;10.896;2022-12-07T14:39:14;9.07;;;6.10;;
45328;SDS011;31063;48.356;10.896;2022-12-07T14:41:40;9.77;;;6.90;;
45328;SDS011;31063;48.356;10.896;2022-12-07T14:44:18;11.80;;;6.95;;
45328;SDS011;31063;48.356;10.896;2022-12-07T14:46:46;12.73;;;6.55;;
45328;SDS011;31063;48.356;10.896;2022-12-07T14:49:12;10.52;;;6.20;;
45328;SDS011;31063;48.356;10.896;2022-12-07T14:51:38;9.23;;;6.57;;
45328;SDS011;31063;48.356;10.896;2022-12-07T14:54:05;9.75;;;6.65;;
45328;SDS011;31063;48.356;10.896;2022-12-07T14:56:36;9.27;;;6.30;;
45328;SDS011;31063;48.356;10.896;2022-12-07T14:59:02;8.17;;;5.73;;
45328;SDS011;31063;48.356;10.896;2022-12-07T15:01:27;10.40;;;6.30;;
45328;SDS011;31063;48.356;10.896;2022-12-07T15:03:53;9.70;;;6.77;;
45328;SDS011;31063;48.356;10.896;2022-12-07T15:06:18;9.50;;;6.77;;
45328;SDS011;31063;48.356;10.896;2022-12-07T15:08:44;10.67;;;6.83;;
45328;SDS011;31063;48.356;10.896;2022-12-07T15:11:11;10.27;;;6.67;;
45328;SDS011;31063;48.356;10.896;2022-12-07T15:13:41;12.52;;;6.50;;
45328;SDS011;31063;48.356;10.896;2022-12-07T15:16:25;9.60;;;6.05;;
45328;SDS011;31063;48.356;10.896;2022-12-07T15:18:51;10.23;;;6.20;;
45328;SDS011;31063;48.356;10.896;2022-12-07T15:21:17;11.30;;;7.17;;
45328;SDS011;31063;48.356;10.896;2022-12-07T15:23:42;11.57;;;7.03;;
45328;SDS011;31063;48.356;10.896;2022-12-07T15:26:09;14.03;;;8.37;;
45328;SDS011;31063;48.356;10.896;2022-12-07T15:28:35;11.75;;;7.47;;
45328;SDS011;31063;48.356;10.896;2022-12-07T15:31:01;12.77;;;7.18;;
45328;SDS011;31063;48.356;10.896;2022-12-07T15:33:26;8.47;;;6.00;;
45328;SDS011;31063;48.356;10.896;2022-12-07T15:35:52;8.67;;;5.90;;
45328;SDS011;31063;48.356;10.896;2022-12-07T15:38:18;8.77;;;6.17;;
45328;SDS011;31063;48.356;10.896;2022-12-07T15:40:46;11.40;;;6.40;;
45328;SDS011;31063;48.356;10.896;2022-12-07T15:43:12;9.73;;;6.30;;
45328;SDS011;31063;48.356;10.896;2022-12-07T15:45:56;8.70;;;6.40;;
45328;SDS011;31063;48.356;10.896;2022-12-07T15:48:22;8.73;;;6.10;;
45328;SDS011;31063;48.356;10.896;2022-12-07T15:50:48;9.30;;;6.15;;
45328;SDS011;31063;48.356;10.896;2022-12-07T15:53:14;10.43;;;6.73;;
45328;SDS011;31063;48.356;10.896;2022-12-07T15:55:39;12.37;;;6.97;;
45328;SDS011;31063;48.356;10.896;2022-12-07T15:58:05;8.95;;;6.32;;
45328;SDS011;31063;48.356;10.896;2022-12-07T16:00:31;12.55;;;6.18;;
45328;SDS011;31063;48.356;10.896;2022-12-07T16:02:57;10.17;;;7.20;;
45328;SDS011;31063;48.356;10.896;2022-12-07T16:05:22;9.47;;;6.37;;
45328;SDS011;31063;48.356;10.896;2022-12-07T16:07:48;15.13;;;7.50;;
45328;SDS011;31063;48.356;10.896;2022-12-07T16:10:14;11.13;;;7.60;;
45328;SDS011;31063;48.356;10.896;2022-12-07T16:12:39;11.97;;;6.87;;
45328;SDS011;31063;48.356;10.896;2022-12-07T16:15:05;11.17;;;7.10;;
45328;SDS011;31063;48.356;10.896;2022-12-07T16:17:31;11.43;;;7.50;;
45328;SDS011;31063;48.356;10.896;2022-12-07T16:19:57;11.23;;;7.20;;
45328;SDS011;31063;48.356;10.896;2022-12-07T16:22:23;9.75;;;6.57;;
45328;SDS011;31063;48.356;10.896;2022-12-07T16:24:49;10.25;;;6.75;;
45328;SDS011;31063;48.356;10.896;2022-12-07T16:27:14;8.70;;;6.03;;
45328;SDS011;31063;48.356;10.896;2022-12-07T16:29:41;9.13;;;6.43;;
45328;SDS011;31063;48.356;10.896;2022-12-07T16:32:06;11.63;;;7.73;;
45328;SDS011;31063;48.356;10.896;2022-12-07T16:34:32;12.77;;;6.73;;
45328;SDS011;31063;48.356;10.896;2022-12-07T16:36:57;11.30;;;7.10;;
45328;SDS011;31063;48.356;10.896;2022-12-07T16:39:23;9.17;;;5.87;;
45328;SDS011;31063;48.356;10.896;2022-12-07T16:41:50;12.77;;;6.80;;
45328;SDS011;31063;48.356;10.896;2022-12-07T16:44:17;11.80;;;7.20;;
45328;SDS011;31063;48.356;10.896;2022-12-07T16:46:43;10.03;;;6.60;;
45328;SDS011;31063;48.356;10.896;2022-12-07T16:49:11;11.03;;;6.93;;
45328;SDS011;31063;48.356;10.896;2022-12-07T16:51:40;11.55;;;6.90;;
45328;SDS011;31063;48.356;10.896;2022-12-07T16:54:08;12.93;;;7.05;;
45328;SDS011;31063;48.356;10.896;2022-12-07T16:56:37;12.05;;;7.88;;
45328;SDS011;31063;48.356;10.896;2022-12-07T16:59:03;9.60;;;6.90;;
45328;SDS011;31063;48.356;10.896;2022-12-07T17:01:28;11.07;;;7.47;;
45328;SDS011;31063;48.356;10.896;2022-12-07T17:03:54;13.43;;;7.73;;